createdAt,value
2022-12-12T00:01:18.136Z,98079.59
2022-12-12T00:03:46.539Z,98078.78
2022-12-12T00:06:16.176Z,98086.50
2022-12-12T00:08:44.299Z,98095.34
2022-12-12T00:11:12.523Z,98098.06
2022-12-12T00:13:41.204Z,98094.22
2022-12-12T00:16:11.333Z,98091.56
2022-12-12T00:18:40.472Z,98099.28
2022-12-12T00:21:16.324Z,98099.59
2022-12-12T00:23:44.809Z,98105.47
2022-12-12T00:26:19.103Z,98105.06
2022-12-12T00:28:47.579Z,98108.13
2022-12-12T00:31:16.826Z,98108.84
2022-12-12T00:33:46.865Z,98113.38
2022-12-12T00:36:16.710Z,98111.91
2022-12-12T00:38:44.816Z,98106.88
2022-12-12T00:41:13.031Z,98124.59
2022-12-12T00:43:41.177Z,98117.25
2022-12-12T00:46:09.543Z,98115.63
2022-12-12T00:48:37.692Z,98115.19
2022-12-12T00:51:11.361Z,98120.06
2022-12-12T00:53:41.085Z,98129.28
2022-12-12T00:56:09.155Z,98130.03
2022-12-12T00:58:37.465Z,98145.38
2022-12-12T01:01:11.070Z,98152.97
2022-12-12T01:03:41.151Z,98156.78
2022-12-12T01:06:09.744Z,98167.16
2022-12-12T01:08:38.236Z,98173.56
2022-12-12T01:11:08.127Z,98184.34
2022-12-12T01:13:36.488Z,98192.78
2022-12-12T01:16:05.742Z,98198.09
2022-12-12T01:18:34.218Z,98199.59
2022-12-12T01:21:02.769Z,98204.16
2022-12-12T01:23:31.116Z,98201.03
2022-12-12T01:26:02.810Z,98200.94
2022-12-12T01:28:32.394Z,98208.53
2022-12-12T01:31:00.496Z,98214.03
2022-12-12T01:33:28.716Z,98224.03
2022-12-12T01:35:56.858Z,98227.88
2022-12-12T01:38:25.882Z,98215.59
2022-12-12T01:40:54.722Z,98217.16
2022-12-12T01:43:24.362Z,98218.66
2022-12-12T01:46:31.200Z,98230.34
2022-12-12T01:49:05.304Z,98225.72
2022-12-12T01:51:34.326Z,98229.28
2022-12-12T01:54:08.881Z,98233.84
2022-12-12T01:56:39.000Z,98232.16
2022-12-12T01:59:10.065Z,98239.47
2022-12-12T02:01:39.329Z,98250.69
2022-12-12T02:04:10.755Z,98253.19
2022-12-12T02:06:39.691Z,98257.47
2022-12-12T02:09:12.369Z,98255.56
2022-12-12T02:11:45.934Z,98245.66
2022-12-12T02:14:16.355Z,98245.81
2022-12-12T02:17:09.625Z,98242.59
2022-12-12T02:20:21.715Z,98240.13
2022-12-12T02:23:22.990Z,98236.78
2022-12-12T02:26:34.907Z,98234.31
2022-12-12T02:29:27.817Z,98235.72
2022-12-12T02:32:04.897Z,98245.13
2022-12-12T02:34:38.304Z,98252.34
2022-12-12T02:37:13.157Z,98256.59
2022-12-12T02:39:49.195Z,98266.44
2022-12-12T02:42:26.797Z,98267.66
2022-12-12T02:45:00.831Z,98262.59
2022-12-12T02:47:33.074Z,98274.88
2022-12-12T02:50:06.525Z,98275.31
2022-12-12T02:52:34.826Z,98274.81
2022-12-12T02:55:03.298Z,98278.41
2022-12-12T02:57:31.482Z,98276.13
2022-12-12T03:00:03.404Z,98281.13
2022-12-12T03:03:23.405Z,98273.88
2022-12-12T03:06:21.521Z,98268.25
2022-12-12T03:09:01.156Z,98260.31
2022-12-12T03:11:47.427Z,98263.00
2022-12-12T03:14:23.264Z,98250.69
2022-12-12T03:17:03.144Z,98263.34
2022-12-12T03:19:43.729Z,98262.63
2022-12-12T03:22:18.431Z,98269.59
2022-12-12T03:24:52.169Z,98270.38
2022-12-12T03:27:26.348Z,98265.41
2022-12-12T03:29:59.394Z,98264.69
2022-12-12T03:32:31.997Z,98270.88
2022-12-12T03:35:08.348Z,98264.31
2022-12-12T03:37:42.027Z,98261.72
2022-12-12T03:40:14.338Z,98270.09
2022-12-12T03:42:48.658Z,98270.31
2022-12-12T03:45:24.819Z,98272.94
2022-12-12T03:47:58.411Z,98280.59
2022-12-12T03:50:31.629Z,98292.16
2022-12-12T03:53:09.209Z,98287.19
2022-12-12T03:55:42.990Z,98286.59
2022-12-12T03:58:15.780Z,98287.88
2022-12-12T04:00:47.002Z,98291.59
2022-12-12T04:03:20.906Z,98305.75
2022-12-12T04:06:13.904Z,98307.66
2022-12-12T04:09:02.452Z,98308.25
2022-12-12T04:11:55.794Z,98306.63
2022-12-12T04:14:49.872Z,98315.63
2022-12-12T04:17:23.377Z,98309.66
2022-12-12T04:20:14.861Z,98316.41
2022-12-12T04:23:10.100Z,98308.94
2022-12-12T04:26:03.265Z,98304.19
2022-12-12T04:28:33.721Z,98304.53
2022-12-12T04:31:06.062Z,98307.34
2022-12-12T04:33:41.543Z,98307.41
2022-12-12T04:36:12.957Z,98314.63
2022-12-12T04:38:46.048Z,98310.13
2022-12-12T04:41:16.994Z,98312.69
2022-12-12T04:43:49.413Z,98314.00
2022-12-12T04:46:20.302Z,98315.88
2022-12-12T04:48:53.708Z,98324.28
2022-12-12T04:51:28.834Z,98325.50
2022-12-12T04:54:03.508Z,98328.25
2022-12-12T04:56:34.583Z,98325.84
2022-12-12T04:59:05.086Z,98325.75
2022-12-12T05:01:46.927Z,98322.78
2022-12-12T05:04:24.609Z,98339.22
2022-12-12T05:06:57.867Z,98346.59
2022-12-12T05:09:27.825Z,98349.47
2022-12-12T05:11:56.213Z,98353.38
2022-12-12T05:14:24.237Z,98353.19
2022-12-12T05:16:57.246Z,98348.50
2022-12-12T05:19:25.455Z,98350.75
2022-12-12T05:21:53.653Z,98348.59
2022-12-12T05:24:21.792Z,98355.03
2022-12-12T05:26:51.283Z,98360.22
2022-12-12T05:29:19.330Z,98363.94
2022-12-12T05:31:47.568Z,98371.16
2022-12-12T05:34:15.713Z,98374.28
2022-12-12T05:36:43.781Z,98365.00
2022-12-12T05:39:11.976Z,98368.00
2022-12-12T05:41:40.130Z,98365.00
2022-12-12T05:44:09.879Z,98370.13
2022-12-12T05:46:38.135Z,98368.53
2022-12-12T05:49:06.198Z,98379.41
2022-12-12T05:51:34.276Z,98379.13
2022-12-12T05:54:02.370Z,98391.63
2022-12-12T05:56:30.462Z,98387.72
2022-12-12T05:58:58.607Z,98386.50
2022-12-12T06:01:28.162Z,98394.72
2022-12-12T06:03:56.308Z,98405.78
2022-12-12T06:06:24.623Z,98406.25
2022-12-12T06:08:52.900Z,98412.38
2022-12-12T06:11:20.944Z,98412.56
2022-12-12T06:13:49.293Z,98418.03
2022-12-12T06:16:20.097Z,98423.66
2022-12-12T06:18:53.617Z,98430.84
2022-12-12T06:21:22.160Z,98429.09
2022-12-12T06:23:50.713Z,98441.63
2022-12-12T06:26:20.591Z,98445.41
2022-12-12T06:28:50.487Z,98442.13
2022-12-12T06:31:19.323Z,98449.97
2022-12-12T06:33:47.768Z,98443.41
2022-12-12T06:36:24.341Z,98447.44
2022-12-12T06:38:53.002Z,98451.47
2022-12-12T06:41:23.058Z,98452.25
2022-12-12T06:43:51.632Z,98462.00
2022-12-12T06:46:23.260Z,98464.72
2022-12-12T06:48:51.901Z,98469.03
2022-12-12T06:51:24.235Z,98475.31
2022-12-12T06:53:52.677Z,98479.69
2022-12-12T06:56:22.995Z,98468.75
2022-12-12T06:58:51.840Z,98467.25
2022-12-12T07:01:21.707Z,98468.06
2022-12-12T07:03:51.823Z,98481.53
2022-12-12T07:06:24.027Z,98476.66
2022-12-12T07:08:53.687Z,98482.81
2022-12-12T07:11:23.693Z,98467.69
2022-12-12T07:13:52.819Z,98477.50
2022-12-12T07:16:21.576Z,98479.47
2022-12-12T07:18:49.837Z,98494.34
2022-12-12T07:21:20.442Z,98494.97
2022-12-12T07:23:50.371Z,98490.34
2022-12-12T07:26:21.518Z,98497.31
2022-12-12T07:28:50.425Z,98497.22
2022-12-12T07:31:21.509Z,98485.56
2022-12-12T07:33:50.213Z,98493.81
2022-12-12T07:36:25.719Z,98502.53
2022-12-12T07:38:55.477Z,98515.81
2022-12-12T07:41:23.674Z,98517.56
2022-12-12T07:43:52.543Z,98521.53
2022-12-12T07:46:24.060Z,98522.75
2022-12-12T07:48:53.098Z,98539.78
2022-12-12T07:51:21.543Z,98545.84
2022-12-12T07:53:49.925Z,98537.34
2022-12-12T07:56:20.922Z,98539.50
2022-12-12T07:58:49.437Z,98534.03
2022-12-12T08:01:20.227Z,98547.25
2022-12-12T08:03:49.196Z,98560.97
2022-12-12T08:06:17.728Z,98559.84
2022-12-12T08:08:46.608Z,98567.81
2022-12-12T08:11:16.900Z,98574.53
2022-12-12T08:13:46.733Z,98575.19
2022-12-12T08:16:17.753Z,98574.72
2022-12-12T08:18:47.273Z,98580.91
2022-12-12T08:21:23.206Z,98576.75
2022-12-12T08:23:56.169Z,98579.47
2022-12-12T08:26:24.242Z,98584.78
2022-12-12T08:28:53.995Z,98580.38
2022-12-12T08:31:23.007Z,98581.03
2022-12-12T08:33:52.280Z,98587.44
2022-12-12T08:36:22.358Z,98590.06
2022-12-12T08:38:50.972Z,98584.53
2022-12-12T08:41:20.180Z,98576.72
2022-12-12T08:43:49.187Z,98588.44
2022-12-12T08:46:22.213Z,98587.38
2022-12-12T08:48:50.777Z,98589.34
2022-12-12T08:51:19.616Z,98586.91
2022-12-12T08:53:48.741Z,98590.31
2022-12-12T08:56:18.462Z,98591.03
2022-12-12T08:58:46.974Z,98587.53
2022-12-12T09:01:17.899Z,98590.81
2022-12-12T09:03:48.141Z,98589.88
2022-12-12T09:06:16.946Z,98589.09
2022-12-12T09:08:45.861Z,98579.91
2022-12-12T09:11:14.529Z,98585.31
2022-12-12T09:13:42.897Z,98580.22
2022-12-12T09:16:12.506Z,98585.06
2022-12-12T09:18:48.068Z,98585.16
2022-12-12T09:21:18.782Z,98572.03
2022-12-12T09:23:47.004Z,98575.06
2022-12-12T09:26:15.313Z,98571.88
2022-12-12T09:28:43.510Z,98578.28
2022-12-12T09:31:13.640Z,98569.47
2022-12-12T09:33:43.038Z,98575.88
2022-12-12T09:36:12.340Z,98575.88
2022-12-12T09:38:42.293Z,98570.59
2022-12-12T09:41:17.165Z,98569.06
2022-12-12T09:43:54.681Z,98571.75
2022-12-12T09:46:33.437Z,98561.91
2022-12-12T09:49:13.699Z,98562.88
2022-12-12T09:51:43.876Z,98565.00
2022-12-12T09:54:16.630Z,98564.25
2022-12-12T09:56:55.695Z,98549.75
2022-12-12T09:59:33.699Z,98540.19
2022-12-12T10:02:13.316Z,98545.38
2022-12-12T10:04:52.231Z,98544.81
2022-12-12T10:07:28.294Z,98536.81
2022-12-12T10:10:05.150Z,98539.66
2022-12-12T10:12:35.231Z,98537.22
2022-12-12T10:15:06.766Z,98534.53
2022-12-12T10:17:38.181Z,98535.84
2022-12-12T10:20:15.431Z,98534.69
2022-12-12T10:22:50.210Z,98536.22
2022-12-12T10:25:27.189Z,98530.06
2022-12-12T10:27:59.021Z,98531.66
2022-12-12T10:30:29.994Z,98527.53
2022-12-12T10:33:13.691Z,98519.75
2022-12-12T10:35:49.611Z,98522.56
2022-12-12T10:38:34.711Z,98518.66
2022-12-12T10:41:12.587Z,98509.03
2022-12-12T10:43:47.086Z,98506.84
2022-12-12T10:46:22.128Z,98510.06
2022-12-12T10:48:51.167Z,98502.69
2022-12-12T10:51:22.473Z,98499.63
2022-12-12T10:53:51.207Z,98500.81
2022-12-12T10:56:25.685Z,98495.81
2022-12-12T10:58:55.603Z,98495.41
2022-12-12T11:02:00.711Z,98505.19
2022-12-12T11:04:17.683Z,98509.44
2022-12-12T11:06:49.474Z,98509.34
2022-12-12T11:09:21.262Z,98508.19
2022-12-12T11:12:02.092Z,98493.94
2022-12-12T11:14:35.243Z,98495.13
2022-12-12T11:17:04.103Z,98489.69
2022-12-12T11:19:39.465Z,98475.69
2022-12-12T11:22:07.867Z,98473.78
2022-12-12T11:24:39.667Z,98471.88
2022-12-12T11:27:09.270Z,98466.88
2022-12-12T11:29:45.685Z,98464.16
2022-12-12T11:32:15.780Z,98466.06
2022-12-12T11:34:47.607Z,98457.06
2022-12-12T11:37:18.069Z,98461.25
2022-12-12T11:39:50.522Z,98460.44
2022-12-12T11:42:22.946Z,98461.94
2022-12-12T11:45:00.082Z,98462.34
2022-12-12T11:47:30.071Z,98461.97
2022-12-12T11:50:00.009Z,98459.38
2022-12-12T11:52:30.568Z,98465.69
2022-12-12T11:54:59.412Z,98467.97
2022-12-12T11:57:46.031Z,98474.59
2022-12-12T12:00:16.519Z,98474.28
2022-12-12T12:03:04.931Z,98472.66
2022-12-12T12:05:46.175Z,98478.38
2022-12-12T12:08:27.326Z,98474.94
2022-12-12T12:11:09.643Z,98471.78
2022-12-12T12:13:53.460Z,98478.75
2022-12-12T12:16:29.568Z,98469.81
2022-12-12T12:19:10.159Z,98465.69
2022-12-12T12:21:49.630Z,98461.44
2022-12-12T12:24:32.360Z,98471.94
2022-12-12T12:27:10.595Z,98478.53
2022-12-12T12:30:13.402Z,98475.50
2022-12-12T12:32:52.241Z,98486.78
2022-12-12T12:35:29.304Z,98477.38
2022-12-12T12:38:13.365Z,98478.44
2022-12-12T12:41:05.328Z,98483.44
2022-12-12T12:43:46.326Z,98478.91
2022-12-12T12:46:22.928Z,98479.72
2022-12-12T12:48:53.699Z,98483.63
2022-12-12T12:51:29.204Z,98470.47
2022-12-12T12:54:02.391Z,98469.28
2022-12-12T12:56:32.918Z,98469.28
2022-12-12T12:59:04.228Z,98464.22
2022-12-12T13:01:38.812Z,98453.44
2022-12-12T13:04:14.575Z,98442.59
2022-12-12T13:06:47.774Z,98451.06
2022-12-12T13:09:30.094Z,98452.63
2022-12-12T13:12:05.040Z,98444.81
2022-12-12T13:14:42.108Z,98442.34
2022-12-12T13:17:18.392Z,98445.81
2022-12-12T13:19:50.936Z,98443.09
2022-12-12T13:22:28.405Z,98441.91
2022-12-12T13:25:02.395Z,98440.41
2022-12-12T13:27:35.098Z,98438.50
2022-12-12T13:30:06.461Z,98441.22
2022-12-12T13:33:01.897Z,98443.16
2022-12-12T13:35:35.417Z,98433.84
2022-12-12T13:38:05.382Z,98424.47
2022-12-12T13:40:44.046Z,98432.19
2022-12-12T13:43:29.563Z,98432.91
2022-12-12T13:45:57.930Z,98426.69
2022-12-12T13:48:46.902Z,98425.16
2022-12-12T13:51:38.810Z,98434.81
2022-12-12T13:54:45.251Z,98442.13
2022-12-12T13:57:15.793Z,98448.78
2022-12-12T14:00:17.200Z,98442.19
2022-12-12T14:02:57.993Z,98431.25
2022-12-12T14:05:34.375Z,98421.56
2022-12-12T14:08:07.368Z,98412.25
2022-12-12T14:10:38.856Z,98418.06
2022-12-12T14:13:28.728Z,98420.72
2022-12-12T14:16:06.979Z,98421.50
2022-12-12T14:18:40.132Z,98414.81
2022-12-12T14:21:13.072Z,98411.75
2022-12-12T14:23:43.083Z,98416.88
2022-12-12T14:26:49.621Z,98412.88
2022-12-12T14:29:29.029Z,98410.56
2022-12-12T14:32:14.977Z,98413.22
2022-12-12T14:34:52.668Z,98409.41
2022-12-12T14:37:51.972Z,98396.97
2022-12-12T14:40:22.909Z,98394.19
2022-12-12T14:43:20.764Z,98398.06
2022-12-12T14:45:55.315Z,98402.28
2022-12-12T14:48:25.835Z,98398.06
2022-12-12T14:51:02.703Z,98394.19
2022-12-12T14:53:35.426Z,98399.59
2022-12-12T14:56:08.626Z,98415.16
2022-12-12T14:58:39.977Z,98421.41
2022-12-12T15:01:09.093Z,98423.25
2022-12-12T15:03:41.067Z,98427.06
2022-12-12T15:06:38.344Z,98426.34
2022-12-12T15:09:20.470Z,98427.84
2022-12-12T15:11:49.291Z,98431.72
2022-12-12T15:14:23.226Z,98430.13
2022-12-12T15:16:56.027Z,98427.00
2022-12-12T15:19:29.386Z,98425.81
2022-12-12T15:21:58.380Z,98435.44
2022-12-12T15:24:30.799Z,98433.13
2022-12-12T15:27:00.390Z,98443.53
2022-12-12T15:29:31.049Z,98450.41
2022-12-12T15:32:02.203Z,98444.72
2022-12-12T15:34:36.180Z,98445.47
2022-12-12T15:37:22.407Z,98450.03
2022-12-12T15:40:20.664Z,98448.84
2022-12-12T15:42:52.819Z,98444.50
2022-12-12T15:45:25.771Z,98439.03
2022-12-12T15:47:55.393Z,98435.22
2022-12-12T15:50:28.757Z,98439.38
2022-12-12T15:53:06.169Z,98439.09
2022-12-12T15:55:36.373Z,98446.03
2022-12-12T15:58:04.591Z,98442.00
2022-12-12T16:00:38.788Z,98446.97
2022-12-12T16:03:23.554Z,98441.84
2022-12-12T16:06:04.497Z,98454.63
2022-12-12T16:08:38.541Z,98443.72
2022-12-12T16:11:32.405Z,98442.50
2022-12-12T16:14:03.325Z,98445.59
2022-12-12T16:16:42.780Z,98444.47
2022-12-12T16:19:34.279Z,98433.88
2022-12-12T16:22:06.248Z,98433.94
2022-12-12T16:24:45.107Z,98432.72
2022-12-12T16:27:14.709Z,98441.53
2022-12-12T16:29:42.850Z,98439.97
2022-12-12T16:32:15.141Z,98440.84
2022-12-12T16:34:43.375Z,98443.63
2022-12-12T16:37:15.176Z,98435.84
2022-12-12T16:39:43.567Z,98419.97
2022-12-12T16:42:16.047Z,98426.13
2022-12-12T16:44:45.622Z,98426.53
2022-12-12T16:47:17.650Z,98428.50
2022-12-12T16:49:46.834Z,98430.34
2022-12-12T16:52:15.542Z,98426.91
2022-12-12T16:54:49.564Z,98422.69
2022-12-12T16:57:22.624Z,98421.13
2022-12-12T16:59:50.689Z,98420.69
2022-12-12T17:02:21.443Z,98424.59
2022-12-12T17:04:50.478Z,98431.06
2022-12-12T17:07:18.629Z,98439.13
2022-12-12T17:09:46.717Z,98444.47
2022-12-12T17:12:15.870Z,98444.41
2022-12-12T17:14:45.391Z,98448.31
2022-12-12T17:17:13.588Z,98445.22
2022-12-12T17:19:41.821Z,98439.81
2022-12-12T17:22:09.908Z,98438.22
2022-12-12T17:24:38.335Z,98435.06
2022-12-12T17:27:06.474Z,98428.03
2022-12-12T17:29:34.578Z,98423.38
2022-12-12T17:32:04.173Z,98422.22
2022-12-12T17:34:32.253Z,98421.66
2022-12-12T17:37:00.429Z,98437.19
2022-12-12T17:39:28.616Z,98440.66
2022-12-12T17:41:56.734Z,98438.41
2022-12-12T17:44:24.936Z,98442.22
2022-12-12T17:46:52.955Z,98456.91
2022-12-12T17:49:22.401Z,98451.47
2022-12-12T17:51:50.658Z,98453.88
2022-12-12T17:54:18.831Z,98465.66
2022-12-12T17:56:47.010Z,98471.72
2022-12-12T17:59:15.368Z,98468.59
2022-12-12T18:01:43.450Z,98473.56
2022-12-12T18:04:11.938Z,98480.06
2022-12-12T18:06:41.576Z,98485.47
2022-12-12T18:09:09.698Z,98496.13
2022-12-12T18:11:38.757Z,98502.44
2022-12-12T18:14:09.053Z,98500.88
2022-12-12T18:16:37.827Z,98500.75
2022-12-12T18:19:05.931Z,98503.13
2022-12-12T18:21:59.832Z,98514.03
2022-12-12T18:24:25.977Z,98505.69
2022-12-12T18:26:55.488Z,98502.59
2022-12-12T18:29:24.345Z,98501.53
2022-12-12T18:31:53.509Z,98509.13
2022-12-12T18:34:22.039Z,98514.13
2022-12-12T18:36:50.684Z,98518.88
2022-12-12T18:39:19.049Z,98512.66
2022-12-12T18:41:48.847Z,98500.22
2022-12-12T18:44:17.428Z,98499.25
2022-12-12T18:46:45.684Z,98510.78
2022-12-12T18:49:15.713Z,98511.25
2022-12-12T18:51:45.235Z,98532.41
2022-12-12T18:54:16.363Z,98528.53
2022-12-12T18:56:46.175Z,98527.63
2022-12-12T18:59:17.439Z,98517.06
2022-12-12T19:01:48.243Z,98506.88
2022-12-12T19:04:22.801Z,98521.75
2022-12-12T19:06:51.869Z,98522.88
2022-12-12T19:09:21.055Z,98517.59
2022-12-12T19:11:49.978Z,98520.97
2022-12-12T19:14:20.708Z,98524.63
2022-12-12T19:16:49.870Z,98532.22
2022-12-12T19:19:19.259Z,98527.66
2022-12-12T19:21:48.301Z,98525.06
2022-12-12T19:24:16.887Z,98515.38
2022-12-12T19:26:45.970Z,98515.56
2022-12-12T19:29:15.808Z,98512.00
2022-12-12T19:31:46.409Z,98504.25
2022-12-12T19:34:16.168Z,98513.06
2022-12-12T19:36:45.549Z,98528.97
2022-12-12T19:39:14.125Z,98524.84
2022-12-12T19:41:43.171Z,98530.00
2022-12-12T19:44:13.167Z,98530.69
2022-12-12T19:47:01.125Z,98532.00
2022-12-12T19:49:29.304Z,98538.53
2022-12-12T19:51:57.675Z,98545.56
2022-12-12T19:54:25.872Z,98553.88
2022-12-12T19:56:54.010Z,98548.72
2022-12-12T19:59:22.221Z,98549.94
2022-12-12T20:01:50.412Z,98554.06
2022-12-12T20:04:22.018Z,98560.13
2022-12-12T20:06:51.095Z,98565.09
2022-12-12T20:09:22.500Z,98563.06
2022-12-12T20:11:51.649Z,98564.66
2022-12-12T20:14:22.392Z,98557.13
2022-12-12T20:16:51.270Z,98565.78
2022-12-12T20:19:21.436Z,98570.03
2022-12-12T20:22:02.517Z,98582.66
2022-12-12T20:24:32.782Z,98578.66
2022-12-12T20:27:04.656Z,98579.63
2022-12-12T20:29:32.786Z,98584.97
2022-12-12T20:32:01.753Z,98581.88
2022-12-12T20:34:31.620Z,98583.31
2022-12-12T20:36:59.746Z,98589.09
2022-12-12T20:39:28.022Z,98598.25
2022-12-12T20:41:57.713Z,98599.63
2022-12-12T20:44:29.096Z,98600.31
2022-12-12T20:46:58.865Z,98601.97
2022-12-12T20:49:28.858Z,98612.22
2022-12-12T20:51:59.560Z,98619.22
2022-12-12T20:54:29.637Z,98628.69
2022-12-12T20:56:59.210Z,98641.81
2022-12-12T20:59:29.038Z,98649.50
2022-12-12T21:01:57.217Z,98650.22
2022-12-12T21:04:25.347Z,98650.41
2022-12-12T21:06:53.463Z,98654.44
2022-12-12T21:09:26.473Z,98666.09
2022-12-12T21:11:56.949Z,98667.19
2022-12-12T21:14:25.530Z,98677.88
2022-12-12T21:16:53.645Z,98684.25
2022-12-12T21:19:23.432Z,98673.56
2022-12-12T21:21:52.309Z,98680.91
2022-12-12T21:24:20.941Z,98690.16
2022-12-12T21:26:51.171Z,98708.47
2022-12-12T21:29:19.762Z,98705.22
2022-12-12T21:31:51.924Z,98710.84
2022-12-12T21:34:21.811Z,98722.97
2022-12-12T21:36:53.029Z,98719.19
2022-12-12T21:39:22.260Z,98725.94
2022-12-12T21:41:51.881Z,98739.59
2022-12-12T21:44:20.955Z,98741.72
2022-12-12T21:46:49.983Z,98742.06
2022-12-12T21:49:26.720Z,98740.28
2022-12-12T21:51:56.513Z,98733.66
2022-12-12T21:54:24.759Z,98732.56
2022-12-12T21:56:54.456Z,98740.84
2022-12-12T21:59:22.689Z,98740.63
2022-12-12T22:01:50.890Z,98743.06
2022-12-12T22:04:19.033Z,98742.97
2022-12-12T22:06:47.874Z,98755.06
2022-12-12T22:09:16.619Z,98752.91
2022-12-12T22:11:52.033Z,98755.59
2022-12-12T22:14:23.264Z,98765.13
2022-12-12T22:16:51.343Z,98763.47
2022-12-12T22:19:19.606Z,98763.34
2022-12-12T22:21:48.917Z,98773.19
2022-12-12T22:24:17.489Z,98771.84
2022-12-12T22:26:48.142Z,98774.53
2022-12-12T22:29:17.926Z,98763.97
2022-12-12T22:31:50.240Z,98770.13
2022-12-12T22:34:21.355Z,98773.97
2022-12-12T22:36:50.079Z,98775.88
2022-12-12T22:39:20.310Z,98764.78
2022-12-12T22:41:50.750Z,98766.34
2022-12-12T22:44:23.664Z,98761.91
2022-12-12T22:46:54.971Z,98758.53
2022-12-12T22:49:26.828Z,98769.28
2022-12-12T22:51:56.360Z,98755.72
2022-12-12T22:54:24.955Z,98756.53
2022-12-12T22:56:53.206Z,98761.22
2022-12-12T22:59:21.360Z,98754.16
2022-12-12T23:01:49.758Z,98753.59
2022-12-12T23:04:19.371Z,98756.41
2022-12-12T23:06:47.726Z,98768.41
2022-12-12T23:09:18.370Z,98767.50
2022-12-12T23:11:46.610Z,98772.19
2022-12-12T23:14:17.563Z,98779.16
2022-12-12T23:16:46.550Z,98785.09
2022-12-12T23:19:17.509Z,98784.75
2022-12-12T23:21:47.866Z,98785.09
2022-12-12T23:24:17.634Z,98785.41
2022-12-12T23:26:45.816Z,98790.13
2022-12-12T23:29:17.036Z,98787.66
2022-12-12T23:31:45.517Z,98783.09
2022-12-12T23:34:16.530Z,98790.13
2022-12-12T23:36:46.047Z,98784.97
2022-12-12T23:39:14.857Z,98790.13
2022-12-12T23:41:43.329Z,98790.59
2022-12-12T23:44:14.544Z,98789.22
2022-12-12T23:46:43.318Z,98791.59
2022-12-12T23:49:16.510Z,98798.44
2022-12-12T23:51:48.236Z,98801.13
2022-12-12T23:54:18.218Z,98792.38
2022-12-12T23:56:47.405Z,98795.75
2022-12-12T23:59:18.238Z,98799.09
